Time;durP1;ratioP1;P1;durP2;ratioP2;P2;SDS_P1;SDS_P2;PMS_P1;PMS_P2;Temp;Humidity;BMP_temperature;BMP_pressure;BME280_temperature;BME280_humidity;BME280_pressure;Samples;Min_cycle;Max_cycle;Signal;HPM_P1;HPM_P2
2024/02/07 00:01:06;;;;;;;3.60;2.00;;;;;;;;;;4955008;29;20183;-84
2024/02/07 00:04:10;;;;;;;7.23;2.40;;;;;;;;;;4955287;29;20176;-84
2024/02/07 00:07:14;;;;;;;4.30;1.93;;;;;;;;;;4955510;29;20183;-84
2024/02/07 00:10:18;;;;;;;3.93;2.00;;;;;;;;;;4955804;29;20187;-84
2024/02/07 00:13:23;;;;;;;3.20;2.27;;;;;;;;;;4965866;28;20175;-83
2024/02/07 00:16:27;;;;;;;4.93;2.07;;;;;;;;;;4955276;29;20179;-83
2024/02/07 00:19:31;;;;;;;4.57;2.50;;;;;;;;;;4954651;28;20227;-84
2024/02/07 00:22:35;;;;;;;5.43;2.23;;;;;;;;;;4954848;29;20211;-83
2024/02/07 00:25:41;;;;;;;4.80;2.40;;;;;;;;;;4965009;28;20184;-83
2024/02/07 00:28:48;;;;;;;3.17;1.97;;;;;;;;;;4954593;29;20595;-83
2024/02/07 00:31:52;;;;;;;3.47;2.13;;;;;;;;;;4942618;29;20203;-84
2024/02/07 00:34:56;;;;;;;5.50;2.40;;;;;;;;;;4953872;29;20187;-83
2024/02/07 00:38:01;;;;;;;6.80;2.20;;;;;;;;;;4964274;28;20223;-83
2024/02/07 00:41:04;;;;;;;4.37;2.10;;;;;;;;;;4953516;29;20179;-83
2024/02/07 00:44:09;;;;;;;4.17;2.17;;;;;;;;;;4953924;29;20183;-83
2024/02/07 00:47:13;;;;;;;2.73;1.90;;;;;;;;;;4964054;28;20183;-83
2024/02/07 00:50:18;;;;;;;4.23;2.03;;;;;;;;;;4953815;29;20187;-84
2024/02/07 00:53:22;;;;;;;2.83;2.10;;;;;;;;;;4953196;29;20183;-83
2024/02/07 00:56:26;;;;;;;2.73;2.07;;;;;;;;;;4954544;29;20183;-83
2024/02/07 00:59:30;;;;;;;4.87;2.30;;;;;;;;;;4953098;29;20215;-83
2024/02/07 01:02:35;;;;;;;3.53;2.23;;;;;;;;;;4954368;29;20211;-81
2024/02/07 01:05:39;;;;;;;2.60;2.17;;;;;;;;;;4954262;29;20191;-80
2024/02/07 01:08:44;;;;;;;4.93;1.97;;;;;;;;;;4954957;29;20231;-81
2024/02/07 01:11:48;;;;;;;5.57;2.27;;;;;;;;;;4954557;29;20179;-80
2024/02/07 01:14:52;;;;;;;3.77;1.93;;;;;;;;;;4942522;29;20188;-80
2024/02/07 01:17:56;;;;;;;5.07;2.37;;;;;;;;;;4964949;28;20218;-80
2024/02/07 01:21:00;;;;;;;4.83;2.37;;;;;;;;;;4954766;29;20187;-80
2024/02/07 01:24:06;;;;;;;2.83;1.90;;;;;;;;;;4954165;29;20568;-80
2024/02/07 01:27:11;;;;;;;6.23;2.23;;;;;;;;;;4954927;29;20184;-81
2024/02/07 01:30:15;;;;;;;2.13;1.53;;;;;;;;;;4954001;29;20633;-80
2024/02/07 01:33:20;;;;;;;3.47;1.83;;;;;;;;;;4957767;29;20172;-80
2024/02/07 01:36:24;;;;;;;3.50;1.70;;;;;;;;;;4957868;29;20525;-80
2024/02/07 01:39:29;;;;;;;4.10;2.00;;;;;;;;;;4957257;29;20696;-81
2024/02/07 01:42:33;;;;;;;2.13;1.80;;;;;;;;;;4956435;29;20215;-81
2024/02/07 01:45:37;;;;;;;2.17;1.90;;;;;;;;;;4957815;29;20184;-80
2024/02/07 01:48:43;;;;;;;4.93;1.97;;;;;;;;;;4958451;29;20219;-80
2024/02/07 01:51:48;;;;;;;4.63;2.00;;;;;;;;;;4957334;29;20175;-80
2024/02/07 01:54:53;;;;;;;3.67;2.00;;;;;;;;;;4956523;29;20625;-80
2024/02/07 01:58:00;;;;;;;4.30;1.70;;;;;;;;;;4956749;29;20219;-80
2024/02/07 02:01:04;;;;;;;2.83;1.60;;;;;;;;;;4957528;29;20188;-80
2024/02/07 02:04:08;;;;;;;3.03;1.80;;;;;;;;;;4957260;29;20568;-80
2024/02/07 02:07:12;;;;;;;2.43;1.63;;;;;;;;;;4945681;29;20187;-80
2024/02/07 02:10:17;;;;;;;4.17;1.83;;;;;;;;;;4958339;29;20633;-81
2024/02/07 02:13:22;;;;;;;5.63;2.10;;;;;;;;;;4959281;29;20180;-81
2024/02/07 02:16:26;;;;;;;2.30;1.50;;;;;;;;;;4959951;29;20223;-81
2024/02/07 02:19:30;;;;;;;3.43;1.77;;;;;;;;;;4958535;29;20220;-81
2024/02/07 02:22:58;;;;;;;3.80;1.90;;;;;;;;;;4970240;28;20211;-81
2024/02/07 02:26:05;;;;;;;6.63;1.87;;;;;;;;;;4949170;29;20184;-81
2024/02/07 02:29:36;;;;;;;6.60;1.97;;;;;;;;;;4970866;28;20223;-81
2024/02/07 02:32:44;;;;;;;3.53;1.80;;;;;;;;;;4958142;29;20203;-82
2024/02/07 02:35:52;;;;;;;4.03;2.23;;;;;;;;;;4958154;29;20180;-81
2024/02/07 02:38:56;;;;;;;3.83;1.80;;;;;;;;;;4957869;29;20704;-81
2024/02/07 02:42:01;;;;;;;4.00;1.90;;;;;;;;;;4973984;29;20172;-82
2024/02/07 02:45:06;;;;;;;3.33;1.83;;;;;;;;;;4976788;28;20176;-82
2024/02/07 02:48:10;;;;;;;3.73;2.23;;;;;;;;;;4960211;29;20696;-81
2024/02/07 02:51:15;;;;;;;2.50;1.77;;;;;;;;;;4973404;28;20195;-80
2024/02/07 02:54:19;;;;;;;3.87;1.97;;;;;;;;;;4963462;29;20175;-81
2024/02/07 02:57:23;;;;;;;2.70;1.87;;;;;;;;;;4962697;29;20183;-81
2024/02/07 03:00:27;;;;;;;5.50;2.00;;;;;;;;;;4964284;29;20184;-82
2024/02/07 03:03:32;;;;;;;5.27;2.23;;;;;;;;;;4975875;28;20221;-80
2024/02/07 03:06:58;;;;;;;5.67;2.27;;;;;;;;;;4953460;29;20179;-81
2024/02/07 03:10:05;;;;;;;2.47;1.70;;;;;;;;;;4964397;29;20180;-81
2024/02/07 03:13:10;;;;;;;6.33;2.07;;;;;;;;;;4963199;29;20180;-81
2024/02/07 03:16:14;;;;;;;4.27;2.40;;;;;;;;;;4962530;29;20613;-81
2024/02/07 03:19:19;;;;;;;5.27;2.40;;;;;;;;;;4974696;28;20223;-80
2024/02/07 03:22:23;;;;;;;2.97;2.20;;;;;;;;;;4963149;29;20183;-81
2024/02/07 03:25:27;;;;;;;4.67;2.43;;;;;;;;;;4963597;29;20180;-81
2024/02/07 03:28:32;;;;;;;4.03;2.03;;;;;;;;;;4963451;29;20215;-81
2024/02/07 03:31:39;;;;;;;6.30;2.60;;;;;;;;;;4963321;29;20215;-81
2024/02/07 03:34:44;;;;;;;2.93;2.17;;;;;;;;;;4963130;29;20628;-81
2024/02/07 03:37:48;;;;;;;4.13;2.37;;;;;;;;;;4951998;29;20219;-81
2024/02/07 03:40:53;;;;;;;5.67;2.60;;;;;;;;;;4962695;29;20184;-81
2024/02/07 03:43:58;;;;;;;5.07;2.50;;;;;;;;;;4962647;29;20216;-81
2024/02/07 03:47:03;;;;;;;3.70;2.27;;;;;;;;;;4962631;29;20188;-81
2024/02/07 03:50:10;;;;;;;4.00;2.20;;;;;;;;;;4962776;29;20183;-81
2024/02/07 03:53:16;;;;;;;9.83;2.70;;;;;;;;;;4960935;28;20188;-81
2024/02/07 03:56:20;;;;;;;5.33;3.03;;;;;;;;;;4961725;29;20180;-81
2024/02/07 03:59:24;;;;;;;5.37;2.57;;;;;;;;;;4960675;29;20215;-81
2024/02/07 04:02:29;;;;;;;5.27;2.67;;;;;;;;;;4961437;29;20183;-81
2024/02/07 04:05:33;;;;;;;5.27;2.50;;;;;;;;;;4961677;29;20640;-81
2024/02/07 04:08:37;;;;;;;3.60;2.50;;;;;;;;;;4970829;28;20223;-81
2024/02/07 05:18:28;;;;;;;3.47;2.47;;;;;;;;;;4959608;29;20618;-80
2024/02/07 05:21:34;;;;;;;4.67;3.17;;;;;;;;;;4961024;29;20180;-80
2024/02/07 05:24:40;;;;;;;6.13;3.10;;;;;;;;;;4960369;29;20219;-80
2024/02/07 05:27:44;;;;;;;5.50;3.10;;;;;;;;;;4959262;29;20219;-80
2024/02/07 05:30:48;;;;;;;6.67;3.07;;;;;;;;;;4959008;29;20179;-81
2024/02/07 05:33:52;;;;;;;3.37;2.47;;;;;;;;;;4957567;29;20629;-81
2024/02/07 05:36:57;;;;;;;5.07;3.00;;;;;;;;;;4958949;29;20184;-80
2024/02/07 05:40:02;;;;;;;5.17;2.50;;;;;;;;;;4959811;29;20183;-80
2024/02/07 05:43:07;;;;;;;3.93;2.60;;;;;;;;;;4947451;29;20637;-80
2024/02/07 05:46:11;;;;;;;4.00;2.90;;;;;;;;;;4970150;28;20184;-80
2024/02/07 05:49:15;;;;;;;7.53;2.83;;;;;;;;;;4969562;28;20219;-81
2024/02/07 05:52:20;;;;;;;5.70;3.03;;;;;;;;;;4958997;29;20187;-81
2024/02/07 05:55:24;;;;;;;4.90;3.10;;;;;;;;;;4958855;29;20188;-80
2024/02/07 05:58:28;;;;;;;5.63;2.90;;;;;;;;;;4947321;29;20245;-81
2024/02/07 06:01:32;;;;;;;6.33;3.10;;;;;;;;;;4959422;29;20188;-82
2024/02/07 06:04:37;;;;;;;4.67;2.73;;;;;;;;;;4959481;29;20219;-82
2024/02/07 06:07:41;;;;;;;4.13;3.07;;;;;;;;;;4958870;29;20227;-81
2024/02/07 06:10:45;;;;;;;4.97;3.30;;;;;;;;;;4958700;29;20633;-81
2024/02/07 06:13:49;;;;;;;5.13;3.20;;;;;;;;;;4958109;29;20179;-82
2024/02/07 06:16:54;;;;;;;9.40;3.80;;;;;;;;;;4947254;28;20195;-82
2024/02/07 06:19:59;;;;;;;6.40;3.57;;;;;;;;;;4958657;29;20183;-81
2024/02/07 06:23:03;;;;;;;5.83;3.50;;;;;;;;;;4959291;29;20188;-81
2024/02/07 06:26:08;;;;;;;6.63;3.63;;;;;;;;;;4969750;28;20180;-81
2024/02/07 06:29:13;;;;;;;7.57;3.70;;;;;;;;;;4957739;29;20222;-80
2024/02/07 06:32:17;;;;;;;8.20;3.90;;;;;;;;;;4957508;29;20211;-81
2024/02/07 06:35:22;;;;;;;4.40;3.57;;;;;;;;;;4958645;29;20184;-81
2024/02/07 06:38:26;;;;;;;6.40;3.80;;;;;;;;;;4957074;29;20219;-81
2024/02/07 06:41:30;;;;;;;5.00;3.50;;;;;;;;;;4956945;29;20621;-81
2024/02/07 06:44:35;;;;;;;5.70;3.50;;;;;;;;;;4958077;29;20215;-82
2024/02/07 06:47:39;;;;;;;6.67;3.30;;;;;;;;;;4957398;29;20215;-81
2024/02/07 06:50:43;;;;;;;8.23;3.87;;;;;;;;;;4968084;28;20636;-81
2024/02/07 06:53:47;;;;;;;7.80;3.80;;;;;;;;;;4945915;29;20188;-80
2024/02/07 06:56:53;;;;;;;6.33;3.93;;;;;;;;;;4956781;29;20191;-79
2024/02/07 06:59:58;;;;;;;11.73;5.53;;;;;;;;;;4945038;29;20187;-82
2024/02/07 07:03:02;;;;;;;12.20;8.30;;;;;;;;;;4957408;29;20187;-86
2024/02/07 07:06:06;;;;;;;11.97;8.80;;;;;;;;;;4957449;29;20184;-85
2024/02/07 07:09:11;;;;;;;14.50;8.70;;;;;;;;;;4957981;29;20219;-86
2024/02/07 07:12:16;;;;;;;15.57;9.17;;;;;;;;;;4967409;28;20192;-85
2024/02/07 07:15:20;;;;;;;8.53;5.77;;;;;;;;;;4957081;29;20183;-86
2024/02/07 07:18:24;;;;;;;7.13;3.80;;;;;;;;;;4956512;29;20223;-85
2024/02/07 07:21:30;;;;;;;7.93;3.87;;;;;;;;;;4934301;29;20552;-86
2024/02/07 07:24:36;;;;;;;7.37;3.97;;;;;;;;;;4957765;29;20204;-86
2024/02/07 07:27:40;;;;;;;6.87;3.20;;;;;;;;;;4956056;29;20712;-85
2024/02/07 07:30:44;;;;;;;7.40;3.50;;;;;;;;;;4956649;29;20191;-86
2024/02/07 07:33:48;;;;;;;11.60;7.80;;;;;;;;;;4955758;29;20183;-86
2024/02/07 07:36:52;;;;;;;9.73;3.97;;;;;;;;;;4945732;29;20184;-86
2024/02/07 07:39:57;;;;;;;10.00;5.07;;;;;;;;;;4956133;29;20179;-86
2024/02/07 07:43:01;;;;;;;21.23;14.83;;;;;;;;;;4956844;29;20529;-84
2024/02/07 07:46:05;;;;;;;8.47;4.00;;;;;;;;;;4955874;29;20211;-84
2024/02/07 07:49:09;;;;;;;8.87;4.40;;;;;;;;;;4955803;29;20219;-86
2024/02/07 07:52:14;;;;;;;7.20;3.40;;;;;;;;;;4967234;28;20184;-86
2024/02/07 07:55:18;;;;;;;5.33;3.30;;;;;;;;;;4955693;29;20179;-85
2024/02/07 07:58:22;;;;;;;6.07;3.00;;;;;;;;;;4957209;29;20215;-85
2024/02/07 08:01:27;;;;;;;10.70;6.33;;;;;;;;;;4955617;29;20183;-85
2024/02/07 08:04:31;;;;;;;5.37;3.23;;;;;;;;;;4955708;29;20207;-86
2024/02/07 08:07:36;;;;;;;5.67;3.47;;;;;;;;;;4966677;28;20219;-85
2024/02/07 08:10:40;;;;;;;6.70;3.60;;;;;;;;;;4955519;29;20557;-85
2024/02/07 08:13:44;;;;;;;5.60;3.60;;;;;;;;;;4955217;29;20641;-85
2024/02/07 08:16:48;;;;;;;5.70;3.23;;;;;;;;;;4955867;29;20179;-86
2024/02/07 08:19:52;;;;;;;6.10;3.00;;;;;;;;;;4956163;29;20179;-85
2024/02/07 08:22:56;;;;;;;5.53;2.97;;;;;;;;;;4956049;29;20180;-85
2024/02/07 08:26:00;;;;;;;5.57;3.23;;;;;;;;;;4966419;28;20219;-85
2024/02/07 08:29:04;;;;;;;7.33;3.10;;;;;;;;;;4955237;29;20223;-85
2024/02/07 08:32:08;;;;;;;6.33;2.97;;;;;;;;;;4954927;29;20206;-86
2024/02/07 08:35:12;;;;;;;6.27;2.97;;;;;;;;;;4956127;29;20175;-85
2024/02/07 08:38:17;;;;;;;5.80;2.83;;;;;;;;;;4955959;29;20215;-85
2024/02/07 08:41:21;;;;;;;9.00;2.83;;;;;;;;;;4966646;28;20179;-84
2024/02/07 08:44:25;;;;;;;5.70;2.40;;;;;;;;;;4956383;29;20580;-84
2024/02/07 08:47:29;;;;;;;10.60;5.53;;;;;;;;;;4956008;29;20223;-85
2024/02/07 08:50:34;;;;;;;5.70;2.57;;;;;;;;;;4956104;29;20528;-85
2024/02/07 08:53:38;;;;;;;4.53;3.00;;;;;;;;;;4956947;29;20640;-85
2024/02/07 08:56:42;;;;;;;7.50;2.80;;;;;;;;;;4955691;29;20176;-85
2024/02/07 08:59:46;;;;;;;4.77;3.03;;;;;;;;;;4954098;29;20183;-85
2024/02/07 09:02:52;;;;;;;6.00;2.50;;;;;;;;;;4954502;29;20576;-85
2024/02/07 09:05:56;;;;;;;7.30;3.10;;;;;;;;;;4965446;28;20688;-85
2024/02/07 09:09:01;;;;;;;7.17;3.23;;;;;;;;;;4953834;29;20214;-83
2024/02/07 09:12:05;;;;;;;6.00;2.87;;;;;;;;;;4965556;28;20183;-86
2024/02/07 09:15:09;;;;;;;5.30;2.73;;;;;;;;;;4955483;29;20175;-85
2024/02/07 09:18:13;;;;;;;5.53;2.87;;;;;;;;;;4955516;29;20219;-85
2024/02/07 09:21:18;;;;;;;4.60;2.60;;;;;;;;;;4955215;29;20548;-86
2024/02/07 09:24:22;;;;;;;4.70;3.03;;;;;;;;;;4954801;29;20184;-84
2024/02/07 09:27:26;;;;;;;4.97;2.67;;;;;;;;;;4954611;29;20183;-82
2024/02/07 09:30:30;;;;;;;5.57;2.57;;;;;;;;;;4954497;29;20187;-86
2024/02/07 09:33:34;;;;;;;4.57;3.10;;;;;;;;;;4954474;29;20184;-86
2024/02/07 09:36:39;;;;;;;7.37;2.97;;;;;;;;;;4954655;29;20188;-86
2024/02/07 09:39:43;;;;;;;5.40;3.07;;;;;;;;;;4954284;29;20637;-86
2024/02/07 09:42:48;;;;;;;4.40;2.87;;;;;;;;;;4965472;28;20183;-83
2024/02/07 09:45:56;;;;;;;5.07;2.80;;;;;;;;;;4954208;29;20212;-87
2024/02/07 09:49:01;;;;;;;6.43;2.90;;;;;;;;;;4954587;29;20223;-86
2024/02/07 09:52:09;;;;;;;9.87;2.63;;;;;;;;;;4965626;28;20633;-86
2024/02/07 09:55:13;;;;;;;6.57;2.70;;;;;;;;;;4957090;29;20184;-87
2024/02/07 09:58:19;;;;;;;5.53;2.40;;;;;;;;;;4957528;29;20223;-87
2024/02/07 10:01:27;;;;;;;10.77;3.03;;;;;;;;;;4957270;29;20187;-87
2024/02/07 10:04:37;;;;;;;3.57;2.70;;;;;;;;;;4946000;29;20188;-87
2024/02/07 10:07:42;;;;;;;5.30;2.43;;;;;;;;;;4956420;29;20219;-87
2024/02/07 10:10:47;;;;;;;4.90;2.60;;;;;;;;;;4956471;29;20183;-87
2024/02/07 10:13:51;;;;;;;5.97;2.40;;;;;;;;;;4956824;29;20180;-87
2024/02/07 10:16:55;;;;;;;4.23;2.27;;;;;;;;;;4956093;29;20183;-87
2024/02/07 10:20:06;;;;;;;7.43;2.83;;;;;;;;;;4956805;29;20195;-87
2024/02/07 10:23:10;;;;;;;4.97;2.33;;;;;;;;;;4956066;29;20180;-86
2024/02/07 10:26:21;;;;;;;11.30;2.27;;;;;;;;;;4956259;29;20665;-86
2024/02/07 10:29:26;;;;;;;3.43;1.80;;;;;;;;;;4955911;29;20219;-87
2024/02/07 10:32:30;;;;;;;4.07;2.50;;;;;;;;;;4956673;29;20215;-86
2024/02/07 10:35:34;;;;;;;4.97;2.70;;;;;;;;;;4956631;29;20179;-86
2024/02/07 10:38:38;;;;;;;3.37;2.10;;;;;;;;;;4957503;29;20216;-86
2024/02/07 10:41:42;;;;;;;6.10;2.90;;;;;;;;;;4967513;28;20183;-86
2024/02/07 10:44:50;;;;;;;5.40;2.10;;;;;;;;;;4967312;28;20246;-86
2024/02/07 10:47:54;;;;;;;5.37;2.17;;;;;;;;;;4956400;29;20219;-86
2024/02/07 10:50:58;;;;;;;5.00;1.80;;;;;;;;;;4955612;29;20184;-86
2024/02/07 10:54:09;;;;;;;3.67;1.93;;;;;;;;;;4955546;29;20183;-86
2024/02/07 10:57:14;;;;;;;5.73;2.10;;;;;;;;;;4944614;29;20176;-85
2024/02/07 11:00:18;;;;;;;8.33;4.50;;;;;;;;;;4955810;29;20180;-86
2024/02/07 11:03:26;;;;;;;8.47;2.17;;;;;;;;;;4954727;29;20188;-86
2024/02/07 11:06:32;;;;;;;8.73;2.43;;;;;;;;;;4955730;29;20230;-86
2024/02/07 11:09:37;;;;;;;8.33;2.60;;;;;;;;;;4944618;29;20188;-86
2024/02/07 11:12:41;;;;;;;3.80;2.50;;;;;;;;;;4955357;29;20184;-86
2024/02/07 11:15:46;;;;;;;4.27;2.10;;;;;;;;;;4954747;29;20180;-86
2024/02/07 11:18:50;;;;;;;6.07;2.70;;;;;;;;;;4955163;29;20219;-86
2024/02/07 11:21:56;;;;;;;5.50;2.30;;;;;;;;;;4956156;29;20187;-86
2024/02/07 11:25:02;;;;;;;4.57;2.00;;;;;;;;;;4955234;29;20191;-87
2024/02/07 11:28:06;;;;;;;6.33;2.10;;;;;;;;;;4955749;29;20219;-86
2024/02/07 11:31:11;;;;;;;5.50;2.27;;;;;;;;;;4944127;29;20211;-86
2024/02/07 11:34:15;;;;;;;3.90;2.07;;;;;;;;;;4954779;29;20188;-86
2024/02/07 11:37:21;;;;;;;3.13;2.20;;;;;;;;;;4954946;29;20213;-86
2024/02/07 11:40:26;;;;;;;7.93;1.83;;;;;;;;;;4955036;29;20187;-86
2024/02/07 11:43:36;;;;;;;5.97;2.00;;;;;;;;;;4955547;29;20191;-86
2024/02/07 11:46:54;;;;;;;4.60;2.10;;;;;;;;;;4955641;29;20212;-86
2024/02/07 11:50:05;;;;;;;4.97;2.50;;;;;;;;;;4954446;29;20184;-86
2024/02/07 11:53:28;;;;;;;3.60;2.00;;;;;;;;;;4955327;29;20626;-86
2024/02/07 11:56:32;;;;;;;4.27;1.97;;;;;;;;;;4954881;29;20180;-86
2024/02/07 11:59:37;;;;;;;5.63;2.17;;;;;;;;;;4965476;28;20180;-86
2024/02/07 12:03:01;;;;;;;6.17;2.20;;;;;;;;;;4954719;29;20192;-86
2024/02/07 12:06:11;;;;;;;5.40;2.20;;;;;;;;;;4954848;29;20203;-86
2024/02/07 12:09:15;;;;;;;4.10;1.93;;;;;;;;;;4954058;29;20566;-86
2024/02/07 12:12:20;;;;;;;3.17;1.87;;;;;;;;;;4965177;28;20176;-87
2024/02/07 12:15:27;;;;;;;5.00;2.30;;;;;;;;;;4955337;28;20179;-86
2024/02/07 12:18:32;;;;;;;8.40;4.00;;;;;;;;;;4943637;29;20700;-85
2024/02/07 12:21:36;;;;;;;4.30;3.20;;;;;;;;;;4954069;29;20184;-86
2024/02/07 12:24:41;;;;;;;5.63;2.30;;;;;;;;;;4953990;29;20533;-86
2024/02/07 12:27:45;;;;;;;5.70;2.23;;;;;;;;;;4953754;29;20212;-87
2024/02/07 12:30:50;;;;;;;3.43;2.83;;;;;;;;;;4954581;29;20184;-86
2024/02/07 12:33:55;;;;;;;5.73;2.87;;;;;;;;;;4942715;29;20180;-86
2024/02/07 12:37:00;;;;;;;9.33;3.97;;;;;;;;;;4942763;28;20191;-86
2024/02/07 12:40:14;;;;;;;8.83;5.20;;;;;;;;;;4953962;29;20188;-85
2024/02/07 12:43:22;;;;;;;4.27;2.30;;;;;;;;;;4943274;29;20184;-85
2024/02/07 12:46:27;;;;;;;7.83;2.80;;;;;;;;;;4931980;29;20211;-86
2024/02/07 12:49:32;;;;;;;6.87;3.43;;;;;;;;;;4953936;29;20219;-86
2024/02/07 12:52:36;;;;;;;4.57;2.57;;;;;;;;;;4943159;29;20629;-86
2024/02/07 12:55:40;;;;;;;7.07;4.13;;;;;;;;;;4954098;29;20652;-86
2024/02/07 12:58:44;;;;;;;6.57;3.10;;;;;;;;;;4954308;29;20215;-87
2024/02/07 13:01:52;;;;;;;5.87;3.40;;;;;;;;;;4964704;28;20183;-87
2024/02/07 13:04:59;;;;;;;8.27;3.30;;;;;;;;;;4953598;29;20184;-88
2024/02/07 13:08:04;;;;;;;3.43;2.80;;;;;;;;;;4952839;29;20549;-88
2024/02/07 13:11:08;;;;;;;3.23;1.97;;;;;;;;;;4942078;29;20184;-87
2024/02/07 13:14:12;;;;;;;3.63;1.70;;;;;;;;;;4952146;29;20192;-88
2024/02/07 13:17:16;;;;;;;4.73;1.90;;;;;;;;;;4952683;29;20180;-86
2024/02/07 13:20:21;;;;;;;5.33;2.10;;;;;;;;;;4953452;29;20192;-87
2024/02/07 13:23:31;;;;;;;6.77;2.20;;;;;;;;;;4952435;29;20179;-87
2024/02/07 13:26:35;;;;;;;3.37;1.60;;;;;;;;;;4954354;28;20212;-87
2024/02/07 13:29:41;;;;;;;5.90;1.90;;;;;;;;;;4955895;29;20522;-87
2024/02/07 13:32:45;;;;;;;3.73;1.87;;;;;;;;;;4955908;29;20549;-87
2024/02/07 13:35:50;;;;;;;3.60;1.80;;;;;;;;;;4967220;28;20183;-87
2024/02/07 13:38:54;;;;;;;5.27;1.80;;;;;;;;;;4956191;29;20219;-87
2024/02/07 13:41:58;;;;;;;3.50;2.17;;;;;;;;;;4946100;29;20188;-86
2024/02/07 13:45:03;;;;;;;3.27;1.67;;;;;;;;;;4956275;29;20522;-86
2024/02/07 13:48:08;;;;;;;5.03;1.80;;;;;;;;;;4955626;29;20208;-86
2024/02/07 13:51:12;;;;;;;2.97;1.60;;;;;;;;;;4955496;29;20187;-86
2024/02/07 13:54:16;;;;;;;2.43;1.87;;;;;;;;;;4944764;29;20187;-86
2024/02/07 13:57:20;;;;;;;3.70;1.80;;;;;;;;;;4956072;29;20188;-86
2024/02/07 14:00:24;;;;;;;4.03;1.93;;;;;;;;;;4966273;28;20187;-86
2024/02/07 14:03:28;;;;;;;2.83;1.67;;;;;;;;;;4956682;29;20188;-86
2024/02/07 14:06:33;;;;;;;5.57;3.20;;;;;;;;;;4954832;29;20212;-86
2024/02/07 14:09:36;;;;;;;4.53;2.70;;;;;;;;;;4943947;29;20630;-87
2024/02/07 14:12:40;;;;;;;6.37;3.30;;;;;;;;;;4955223;29;20179;-86
2024/02/07 14:15:45;;;;;;;5.80;2.70;;;;;;;;;;4944780;29;20187;-87
2024/02/07 14:18:49;;;;;;;5.57;2.40;;;;;;;;;;4944382;29;20561;-88
2024/02/07 14:21:54;;;;;;;4.67;2.10;;;;;;;;;;4944374;29;20180;-87
2024/02/07 14:24:58;;;;;;;3.43;2.43;;;;;;;;;;4954578;29;20191;-87
2024/02/07 14:28:02;;;;;;;6.17;1.90;;;;;;;;;;4954328;29;20707;-87
2024/02/07 14:31:06;;;;;;;2.70;1.70;;;;;;;;;;4965397;28;20211;-87
2024/02/07 14:34:11;;;;;;;3.13;1.40;;;;;;;;;;4954774;29;20184;-88
2024/02/07 14:37:16;;;;;;;4.03;1.60;;;;;;;;;;4954346;29;20180;-88
2024/02/07 14:40:20;;;;;;;6.80;3.97;;;;;;;;;;4955043;29;20641;-88
2024/02/07 14:43:25;;;;;;;2.20;1.60;;;;;;;;;;4955789;29;20192;-88
2024/02/07 14:46:29;;;;;;;4.77;1.97;;;;;;;;;;4944240;29;20211;-88
2024/02/07 14:49:33;;;;;;;3.97;1.70;;;;;;;;;;4955441;29;20219;-88
2024/02/07 14:52:37;;;;;;;4.97;1.83;;;;;;;;;;4954902;29;20179;-87
2024/02/07 14:55:42;;;;;;;3.20;1.53;;;;;;;;;;4965519;28;20196;-87
2024/02/07 14:58:46;;;;;;;2.70;1.57;;;;;;;;;;4943781;29;20211;-88
2024/02/07 15:01:50;;;;;;;3.17;2.20;;;;;;;;;;4954738;29;20184;-88
2024/02/07 15:04:55;;;;;;;3.70;1.60;;;;;;;;;;4955097;29;20191;-88
2024/02/07 15:07:59;;;;;;;4.53;1.97;;;;;;;;;;4944276;29;20235;-88
2024/02/07 15:11:04;;;;;;;4.40;2.40;;;;;;;;;;4955037;29;20184;-87
2024/02/07 15:14:08;;;;;;;5.07;3.27;;;;;;;;;;4945418;29;20183;-88
2024/02/07 15:17:13;;;;;;;2.57;1.80;;;;;;;;;;4933629;29;20188;-87
2024/02/07 15:20:17;;;;;;;9.93;5.93;;;;;;;;;;4933497;23;20241;-85
2024/02/07 15:23:21;;;;;;;4.87;2.20;;;;;;;;;;4919473;29;20185;-84
2024/02/07 15:26:25;;;;;;;7.80;4.17;;;;;;;;;;4917715;29;20209;-84
2024/02/07 15:29:30;;;;;;;5.83;2.40;;;;;;;;;;4918626;29;20574;-84
2024/02/07 15:32:34;;;;;;;2.87;1.90;;;;;;;;;;4906551;29;20185;-84
2024/02/07 15:35:38;;;;;;;5.70;3.17;;;;;;;;;;4919590;29;20188;-85
2024/02/07 15:38:42;;;;;;;3.47;1.93;;;;;;;;;;4918161;29;20212;-84
2024/02/07 15:41:46;;;;;;;8.20;2.30;;;;;;;;;;4919435;29;20184;-84
2024/02/07 15:44:51;;;;;;;4.03;1.97;;;;;;;;;;4897903;29;20181;-84
2024/02/07 15:47:55;;;;;;;3.37;1.80;;;;;;;;;;4919016;29;20701;-85
2024/02/07 15:51:00;;;;;;;2.50;2.07;;;;;;;;;;4918703;29;20288;-84
2024/02/07 15:54:04;;;;;;;6.53;1.83;;;;;;;;;;4919564;29;20187;-84
2024/02/07 15:57:08;;;;;;;3.30;1.87;;;;;;;;;;4907896;29;20189;-84
2024/02/07 16:00:13;;;;;;;3.83;1.93;;;;;;;;;;4918093;29;20639;-84
2024/02/07 16:03:17;;;;;;;3.47;2.47;;;;;;;;;;4919146;29;20650;-84
2024/02/07 16:06:22;;;;;;;4.23;2.13;;;;;;;;;;4918507;29;20189;-85
2024/02/07 16:09:25;;;;;;;3.00;1.80;;;;;;;;;;4917501;29;20229;-84
2024/02/07 16:12:30;;;;;;;7.17;3.40;;;;;;;;;;4916960;29;20546;-85
2024/02/07 16:15:35;;;;;;;1.80;1.50;;;;;;;;;;4918629;29;20177;-84
2024/02/07 16:18:43;;;;;;;8.37;5.03;;;;;;;;;;4917117;29;20233;-88
2024/02/07 16:21:47;;;;;;;10.70;3.63;;;;;;;;;;4904601;29;20180;-88
2024/02/07 16:24:52;;;;;;;4.27;2.40;;;;;;;;;;4905194;29;20181;-88
2024/02/07 16:27:55;;;;;;;5.93;3.30;;;;;;;;;;4915792;29;20232;-88
2024/02/07 16:31:06;;;;;;;9.67;5.13;;;;;;;;;;4904778;29;20205;-88
2024/02/07 16:34:10;;;;;;;10.33;6.97;;;;;;;;;;4904658;29;20187;-88
2024/02/07 16:37:15;;;;;;;6.20;3.27;;;;;;;;;;4904883;29;20181;-87
2024/02/07 16:40:25;;;;;;;7.57;2.53;;;;;;;;;;4915297;29;20185;-88
2024/02/07 16:43:29;;;;;;;5.97;2.90;;;;;;;;;;4893571;29;20193;-86
2024/02/07 16:46:34;;;;;;;6.05;3.70;;;;;;;;;;4916282;29;20185;-88
2024/02/07 16:49:38;;;;;;;8.10;2.73;;;;;;;;;;4904501;29;20196;-87
2024/02/07 16:52:43;;;;;;;6.80;2.37;;;;;;;;;;4926225;29;20185;-87
2024/02/07 16:55:47;;;;;;;7.57;2.23;;;;;;;;;;4905662;29;20191;-87
2024/02/07 16:58:52;;;;;;;5.73;2.20;;;;;;;;;;4904327;29;20701;-87
2024/02/07 17:01:56;;;;;;;3.77;1.83;;;;;;;;;;4895346;29;20189;-88
2024/02/07 17:05:00;;;;;;;3.83;2.03;;;;;;;;;;4908058;29;20192;-88
2024/02/07 17:08:05;;;;;;;5.40;2.10;;;;;;;;;;4907512;29;20228;-88
2024/02/07 17:11:10;;;;;;;2.53;1.70;;;;;;;;;;4907846;29;20193;-88
2024/02/07 17:14:14;;;;;;;3.87;2.03;;;;;;;;;;4908085;29;20633;-88
2024/02/07 17:17:18;;;;;;;7.70;2.70;;;;;;;;;;4924270;29;20188;-89
2024/02/07 17:20:22;;;;;;;4.73;2.10;;;;;;;;;;4917938;29;20216;-89
2024/02/07 17:23:26;;;;;;;7.20;2.47;;;;;;;;;;4918312;29;20184;-88
2024/02/07 17:26:31;;;;;;;6.73;1.80;;;;;;;;;;4918172;29;20205;-88
2024/02/07 17:29:35;;;;;;;6.17;2.17;;;;;;;;;;4917913;29;20216;-88
2024/02/07 17:32:41;;;;;;;2.73;2.00;;;;;;;;;;4918158;29;20193;-88
2024/02/07 17:35:47;;;;;;;4.13;2.33;;;;;;;;;;4918551;29;20189;-88
2024/02/07 17:38:51;;;;;;;4.90;2.43;;;;;;;;;;4917617;29;20701;-88
2024/02/07 17:41:56;;;;;;;9.93;3.53;;;;;;;;;;4907303;29;20185;-88
2024/02/07 17:45:00;;;;;;;10.40;5.00;;;;;;;;;;4896447;29;20651;-88
2024/02/07 17:48:05;;;;;;;28.37;15.23;;;;;;;;;;4918774;29;20258;-88
2024/02/07 17:51:09;;;;;;;20.63;10.93;;;;;;;;;;4928117;29;20189;-88
2024/02/07 17:54:13;;;;;;;10.37;6.03;;;;;;;;;;4917508;29;20188;-88
2024/02/07 17:57:18;;;;;;;10.40;5.90;;;;;;;;;;4917150;29;20181;-88
2024/02/07 18:00:22;;;;;;;4.70;2.80;;;;;;;;;;4917518;29;20189;-88
2024/02/07 18:03:26;;;;;;;5.27;2.50;;;;;;;;;;4907166;29;20634;-88
2024/02/07 18:06:31;;;;;;;7.83;2.80;;;;;;;;;;4917033;29;20181;-88
2024/02/07 18:09:35;;;;;;;7.57;3.57;;;;;;;;;;4917005;29;20209;-89
2024/02/07 18:12:39;;;;;;;6.03;2.93;;;;;;;;;;4916089;29;20539;-87
2024/02/07 18:15:43;;;;;;;5.90;2.70;;;;;;;;;;4917324;29;20628;-87
2024/02/07 18:18:47;;;;;;;5.37;2.53;;;;;;;;;;4917696;29;20228;-87
2024/02/07 18:21:51;;;;;;;7.07;2.80;;;;;;;;;;4917066;29;20638;-87
2024/02/07 18:24:55;;;;;;;5.87;2.73;;;;;;;;;;4917425;29;20189;-88
2024/02/07 18:27:59;;;;;;;5.20;2.87;;;;;;;;;;4916545;29;20588;-87
2024/02/07 18:31:04;;;;;;;9.37;2.97;;;;;;;;;;4905674;29;20189;-88
2024/02/07 18:34:08;;;;;;;5.80;3.30;;;;;;;;;;4905976;29;20189;-88
2024/02/07 18:37:13;;;;;;;10.53;4.80;;;;;;;;;;4905760;29;20181;-87
2024/02/07 18:40:17;;;;;;;7.47;3.57;;;;;;;;;;4920687;29;20185;-87
2024/02/07 18:43:21;;;;;;;5.50;2.50;;;;;;;;;;4908682;29;20189;-88
2024/02/07 18:46:25;;;;;;;6.93;2.63;;;;;;;;;;4909121;29;20181;-87
2024/02/07 18:49:29;;;;;;;8.43;2.60;;;;;;;;;;4909918;29;20232;-87
2024/02/07 18:52:37;;;;;;;5.10;2.50;;;;;;;;;;4920868;29;20185;-87
2024/02/07 18:55:43;;;;;;;6.17;2.57;;;;;;;;;;4921986;29;20185;-87
2024/02/07 18:58:47;;;;;;;6.20;3.10;;;;;;;;;;4921512;29;20216;-88
2024/02/07 19:01:51;;;;;;;4.43;2.40;;;;;;;;;;4921983;29;20189;-88
2024/02/07 19:04:55;;;;;;;5.70;2.60;;;;;;;;;;4921422;29;20188;-88
2024/02/07 19:07:59;;;;;;;8.77;2.57;;;;;;;;;;4923925;29;20228;-88
2024/02/07 19:11:03;;;;;;;7.93;3.00;;;;;;;;;;4926759;29;20184;-87
2024/02/07 19:14:08;;;;;;;5.63;2.73;;;;;;;;;;4927189;29;20193;-87
2024/02/07 19:17:12;;;;;;;6.00;2.63;;;;;;;;;;4916067;29;20185;-87
2024/02/07 19:20:16;;;;;;;5.77;2.53;;;;;;;;;;4913839;29;20201;-87
2024/02/07 19:23:20;;;;;;;5.43;2.90;;;;;;;;;;4902870;29;20184;-87
2024/02/07 19:26:25;;;;;;;4.77;2.67;;;;;;;;;;4924134;29;20200;-87
2024/02/07 19:29:32;;;;;;;5.57;2.77;;;;;;;;;;4923728;29;20389;-87
2024/02/07 19:32:37;;;;;;;5.70;3.23;;;;;;;;;;4912633;29;20193;-87
2024/02/07 19:35:41;;;;;;;6.53;3.00;;;;;;;;;;4924403;29;20646;-87